Aérodrome :
LOGIN :

S'inscrire | Disclaimer

   EN    FR    IT 

 










Légende :    VFR   VFR Marginal   IFR   IFR Intensif   IFR Très Intensif
Visi : 
Plafond : 
>= 8 km
>= 3000ft
5 à 8 km
1000 à 3000 ft
1500m à 5 km
500 à 1000 ft
800 à 1500m
200 à 500 ft
< 800m
< 200 ft
Symboles :   Orages  Brouillard  Fortes neiges  Fortes précipitations  Vent > 20 kt
SIGMETs :   Divers  Orages  Givrage  Turbulence  Onde Orograph.  Cendres Volcan.







- Altitude de l'aérodrome : 538 ft
- Code IATA : TNF
- Voir les cartes d'approche


LFPN - Toussus Le Noble

DERNIER METAR :
  • 171830Z AUTO 10002KT CAVOK 17/15 Q1016 NOSIG

METARs EXPIRÉS :
  • 171800Z AUTO 07002KT CAVOK 17/15 Q1016 NOSIG
  • 171730Z AUTO 06001KT CAVOK 18/15 Q1016 NOSIG
  • 171700Z AUTO 10002KT CAVOK 20/16 Q1016 NOSIG
  • 171630Z AUTO 11002KT CAVOK 20/16 Q1016 NOSIG
  • 171600Z AUTO 10004KT CAVOK 21/16 Q1016 NOSIG
  • 171530Z AUTO 11004KT CAVOK 22/16 Q1016 NOSIG

TAF TAF LFPN
Valide du 17 à 18h jusqu'au 18 à 03h UTC


171700Z 1718/1803 10005KT CAVOK
PROB30
TEMPO 1723/1803 4000 MIFG
ATIS : +33 1 39 56 54 70
Pas de NOTAMs connus pour ce terrain.



MET'MAP, la Météo Aéronautique d'un coup d'oeil ! - Copyright ORBIFLY Décembre 2007 - Disclaimer

ORBIFLY MET'MAP TEAM :

Programmation & Développement : Alexandra Zaïnal
Conception & Développement : Baudouin d'Aumeries
Co-Programmation & Développement : Marc-Olivier Méhu
Soutien technique & logistique : Manuel Goepfert

Contact : metmap@orbifly.com




SOURCES & CREDITS :

   NOAA